sensor_id;sensor_type;location;lat;lon;timestamp;pressure;altitude;pressure_sealevel;temperature;humidity
59757;BME280;45631;51.962;5.974;2024-02-26T00:01:12;68838.22;;;4.07;100.00
59757;BME280;45631;51.962;5.974;2024-02-26T00:03:40;68834.75;;;4.04;100.00
59757;BME280;45631;51.962;5.974;2024-02-26T00:06:11;68828.09;;;4.00;100.00
59757;BME280;45631;51.962;5.974;2024-02-26T00:08:42;68826.66;;;4.01;100.00
59757;BME280;45631;51.962;5.974;2024-02-26T00:11:12;68832.69;;;4.00;100.00
59757;BME280;45631;51.962;5.974;2024-02-26T00:13:40;68830.34;;;3.98;100.00
59757;BME280;45631;51.962;5.974;2024-02-26T00:16:08;68826.88;;;3.95;100.00
59757;BME280;45631;51.962;5.974;2024-02-26T00:18:36;68825.44;;;3.96;100.00
59757;BME280;45631;51.962;5.974;2024-02-26T00:21:04;68825.44;;;3.96;100.00
59757;BME280;45631;51.962;5.974;2024-02-26T00:23:33;68830.34;;;3.98;100.00
59757;BME280;45631;51.962;5.974;2024-02-26T00:26:01;68825.69;;;3.94;100.00
59757;BME280;45631;51.962;5.974;2024-02-26T00:28:31;68820.22;;;3.91;100.00
59757;BME280;45631;51.962;5.974;2024-02-26T00:31:00;68818.47;;;3.89;100.00
59757;BME280;45631;51.962;5.974;2024-02-26T00:33:30;68818.75;;;3.87;100.00
59757;BME280;45631;51.962;5.974;2024-02-26T00:35:58;68812.41;;;3.86;100.00
59757;BME280;45631;51.962;5.974;2024-02-26T00:38:26;68816.16;;;3.87;100.00
59757;BME280;45631;51.962;5.974;2024-02-26T00:40:55;68813.00;;;3.87;100.00
59757;BME280;45631;51.962;5.974;2024-02-26T00:43:23;68810.94;;;3.83;100.00
59757;BME280;45631;51.962;5.974;2024-02-26T00:45:52;68806.63;;;3.81;100.00
59757;BME280;45631;51.962;5.974;2024-02-26T00:48:21;68812.09;;;3.84;100.00
59757;BME280;45631;51.962;5.974;2024-02-26T00:50:49;68804.88;;;3.80;100.00
59757;BME280;45631;51.962;5.974;2024-02-26T00:53:17;68807.44;;;3.80;100.00
59757;BME280;45631;51.962;5.974;2024-02-26T00:55:45;68806.28;;;3.79;100.00
59757;BME280;45631;51.962;5.974;2024-02-26T00:58:13;68808.28;;;3.78;100.00
59757;BME280;45631;51.962;5.974;2024-02-26T01:00:42;68804.56;;;3.77;100.00
59757;BME280;45631;51.962;5.974;2024-02-26T01:03:11;68812.09;;;3.84;100.00
59757;BME280;45631;51.962;5.974;2024-02-26T01:05:40;68810.34;;;3.82;100.00
59757;BME280;45631;51.962;5.974;2024-02-26T01:08:08;68812.94;;;3.82;100.00
59757;BME280;45631;51.962;5.974;2024-02-26T01:10:37;68815.00;;;3.86;100.00
59757;BME280;45631;51.962;5.974;2024-02-26T01:13:05;68811.00;;;3.87;100.00
59757;BME280;45631;51.962;5.974;2024-02-26T01:15:34;68814.72;;;3.88;100.00
59757;BME280;45631;51.962;5.974;2024-02-26T01:18:02;68821.69;;;3.95;100.00
59757;BME280;45631;51.962;5.974;2024-02-26T01:20:32;68824.28;;;3.95;100.00
59757;BME280;45631;51.962;5.974;2024-02-26T01:23:00;68830.09;;;4.00;100.00
59757;BME280;45631;51.962;5.974;2024-02-26T01:25:29;68832.09;;;3.99;100.00
59757;BME280;45631;51.962;5.974;2024-02-26T01:27:57;68831.25;;;4.01;100.00
59757;BME280;45631;51.962;5.974;2024-02-26T01:30:25;68832.41;;;4.02;100.00
59757;BME280;45631;51.962;5.974;2024-02-26T01:32:53;68838.78;;;4.07;100.00
59757;BME280;45631;51.962;5.974;2024-02-26T01:35:22;68840.47;;;4.04;100.00
59757;BME280;45631;51.962;5.974;2024-02-26T01:37:51;68844.28;;;4.10;100.00
59757;BME280;45631;51.962;5.974;2024-02-26T01:40:19;68838.78;;;4.07;100.00
59757;BME280;45631;51.962;5.974;2024-02-26T01:42:48;68843.69;;;4.10;100.00
59757;BME280;45631;51.962;5.974;2024-02-26T01:45:16;68841.44;;;4.12;100.00
59757;BME280;45631;51.962;5.974;2024-02-26T01:47:50;68841.69;;;4.10;100.00
59757;BME280;45631;51.962;5.974;2024-02-26T01:50:19;68844.03;;;4.12;100.00
59757;BME280;45631;51.962;5.974;2024-02-26T01:52:50;68842.84;;;4.11;100.00
59757;BME280;45631;51.962;5.974;2024-02-26T01:55:20;68854.41;;;4.17;100.00
59757;BME280;45631;51.962;5.974;2024-02-26T01:57:49;68853.56;;;4.18;100.00
59757;BME280;45631;51.962;5.974;2024-02-26T02:00:20;68857.06;;;4.21;100.00
59757;BME280;45631;51.962;5.974;2024-02-26T02:02:49;68848.66;;;4.16;100.00
59757;BME280;45631;51.962;5.974;2024-02-26T02:05:20;68852.41;;;4.17;100.00
59757;BME280;45631;51.962;5.974;2024-02-26T02:07:48;68848.34;;;4.14;100.00
59757;BME280;45631;51.962;5.974;2024-02-26T02:10:19;68841.69;;;4.10;100.00
59757;BME280;45631;51.962;5.974;2024-02-26T02:12:50;68843.44;;;4.12;100.00
59757;BME280;45631;51.962;5.974;2024-02-26T02:15:18;68844.03;;;4.12;100.00
59757;BME280;45631;51.962;5.974;2024-02-26T02:17:47;68842.84;;;4.11;100.00
59757;BME280;45631;51.962;5.974;2024-02-26T02:20:17;68846.00;;;4.12;100.00
59757;BME280;45631;51.962;5.974;2024-02-26T02:22:47;68844.28;;;4.10;100.00
59757;BME280;45631;51.962;5.974;2024-02-26T02:25:15;68842.28;;;4.11;100.00
59757;BME280;45631;51.962;5.974;2024-02-26T02:27:43;68840.22;;;4.06;100.00
59757;BME280;45631;51.962;5.974;2024-02-26T02:30:12;68837.38;;;4.09;100.00
59757;BME280;45631;51.962;5.974;2024-02-26T02:32:42;68836.72;;;4.03;100.00
59757;BME280;45631;51.962;5.974;2024-02-26T02:35:11;68835.00;;;4.02;100.00
59757;BME280;45631;51.962;5.974;2024-02-26T02:37:39;68829.81;;;4.02;100.00
59757;BME280;45631;51.962;5.974;2024-02-26T02:40:09;68835.06;;;4.06;100.00
59757;BME280;45631;51.962;5.974;2024-02-26T02:42:37;68829.50;;;3.99;100.00
59757;BME280;45631;51.962;5.974;2024-02-26T02:45:06;68826.63;;;3.97;100.00
59757;BME280;45631;51.962;5.974;2024-02-26T02:47:36;68825.44;;;3.96;100.00
59757;BME280;45631;51.962;5.974;2024-02-26T02:50:05;68830.94;;;3.98;100.00
59757;BME280;45631;51.962;5.974;2024-02-26T02:52:33;68822.59;;;3.98;100.00
59757;BME280;45631;51.962;5.974;2024-02-26T02:55:01;68825.44;;;3.96;100.00
59757;BME280;45631;51.962;5.974;2024-02-26T02:57:31;68827.75;;;3.98;100.00
59757;BME280;45631;51.962;5.974;2024-02-26T03:00:00;68825.19;;;3.98;100.00
59757;BME280;45631;51.962;5.974;2024-02-26T03:02:30;68824.03;;;3.97;100.00
59757;BME280;45631;51.962;5.974;2024-02-26T03:04:59;68827.50;;;4.00;100.00
59757;BME280;45631;51.962;5.974;2024-02-26T03:07:27;68830.41;;;4.02;100.00
59757;BME280;45631;51.962;5.974;2024-02-26T03:09:55;68829.19;;;3.97;100.00
59757;BME280;45631;51.962;5.974;2024-02-26T03:12:24;68828.09;;;4.00;100.00
59757;BME280;45631;51.962;5.974;2024-02-26T03:14:53;68830.34;;;3.98;100.00
59757;BME280;45631;51.962;5.974;2024-02-26T03:17:22;68831.50;;;3.99;100.00
59757;BME280;45631;51.962;5.974;2024-02-26T03:19:51;68832.09;;;3.99;100.00
59757;BME280;45631;51.962;5.974;2024-02-26T03:22:21;68824.59;;;3.97;100.00
59757;BME280;45631;51.962;5.974;2024-02-26T03:24:49;68826.03;;;3.96;100.00
59757;BME280;45631;51.962;5.974;2024-02-26T03:27:17;68829.81;;;4.02;100.00
59757;BME280;45631;51.962;5.974;2024-02-26T03:29:45;68830.09;;;4.00;100.00
59757;BME280;45631;51.962;5.974;2024-02-26T03:32:16;68829.25;;;4.01;100.00
59757;BME280;45631;51.962;5.974;2024-02-26T03:34:44;68833.00;;;4.02;100.00
59757;BME280;45631;51.962;5.974;2024-02-26T03:37:14;68831.25;;;4.01;100.00
59757;BME280;45631;51.962;5.974;2024-02-26T03:39:43;68832.41;;;4.02;100.00
59757;BME280;45631;51.962;5.974;2024-02-26T03:42:11;68832.41;;;4.02;100.00
59757;BME280;45631;51.962;5.974;2024-02-26T03:44:40;68833.56;;;4.03;100.00
59757;BME280;45631;51.962;5.974;2024-02-26T03:47:08;68836.72;;;4.03;100.00
59757;BME280;45631;51.962;5.974;2024-02-26T03:49:37;68839.63;;;4.06;100.00
59757;BME280;45631;51.962;5.974;2024-02-26T03:52:06;68844.03;;;4.12;100.00
59757;BME280;45631;51.962;5.974;2024-02-26T03:54:34;68841.44;;;4.12;100.00
59757;BME280;45631;51.962;5.974;2024-02-26T03:57:03;68841.13;;;4.10;100.00
59757;BME280;45631;51.962;5.974;2024-02-26T03:59:31;68846.66;;;4.17;100.00
59757;BME280;45631;51.962;5.974;2024-02-26T04:01:59;68846.34;;;4.14;100.00
59757;BME280;45631;51.962;5.974;2024-02-26T04:04:28;68847.50;;;4.15;100.00
59757;BME280;45631;51.962;5.974;2024-02-26T04:06:58;68847.81;;;4.18;100.00
59757;BME280;45631;51.962;5.974;2024-02-26T04:09:26;68847.81;;;4.18;100.00
59757;BME280;45631;51.962;5.974;2024-02-26T04:11:55;68850.41;;;4.18;100.00
59757;BME280;45631;51.962;5.974;2024-02-26T04:14:24;68850.41;;;4.18;100.00
59757;BME280;45631;51.962;5.974;2024-02-26T04:16:53;68849.00;;;4.19;100.00
59757;BME280;45631;51.962;5.974;2024-02-26T04:19:24;68855.06;;;4.22;100.00
59757;BME280;45631;51.962;5.974;2024-02-26T04:21:52;68853.31;;;4.20;100.00
59757;BME280;45631;51.962;5.974;2024-02-26T04:24:22;68851.31;;;4.21;100.00
59757;BME280;45631;51.962;5.974;2024-02-26T04:26:50;68853.00;;;4.18;100.00
59757;BME280;45631;51.962;5.974;2024-02-26T04:29:18;68846.94;;;4.15;100.00
59757;BME280;45631;51.962;5.974;2024-02-26T04:31:46;68836.81;;;4.08;100.00
59757;BME280;45631;51.962;5.974;2024-02-26T04:34:15;68839.06;;;4.05;100.00
59757;BME280;45631;51.962;5.974;2024-02-26T04:36:43;68829.31;;;4.06;100.00
59757;BME280;45631;51.962;5.974;2024-02-26T04:39:11;68832.72;;;4.04;100.00
59757;BME280;45631;51.962;5.974;2024-02-26T04:41:41;68831.56;;;4.03;100.00
59757;BME280;45631;51.962;5.974;2024-02-26T04:44:09;68830.09;;;4.00;100.00
59757;BME280;45631;51.962;5.974;2024-02-26T04:46:37;68828.34;;;3.98;100.00
59757;BME280;45631;51.962;5.974;2024-02-26T04:49:09;68830.09;;;4.00;100.00
59757;BME280;45631;51.962;5.974;2024-02-26T04:51:37;68830.09;;;4.00;100.00
59757;BME280;45631;51.962;5.974;2024-02-26T04:54:05;68830.09;;;4.00;100.00
59757;BME280;45631;51.962;5.974;2024-02-26T04:56:33;68824.03;;;3.97;100.00
59757;BME280;45631;51.962;5.974;2024-02-26T04:59:03;68825.44;;;3.96;100.00
59757;BME280;45631;51.962;5.974;2024-02-26T05:01:31;68820.81;;;3.92;100.00
59757;BME280;45631;51.962;5.974;2024-02-26T05:04:01;68822.88;;;3.96;100.00
59757;BME280;45631;51.962;5.974;2024-02-26T05:06:30;68823.13;;;3.94;100.00
59757;BME280;45631;51.962;5.974;2024-02-26T05:08:58;68821.13;;;3.94;100.00
59757;BME280;45631;51.962;5.974;2024-02-26T05:11:26;68818.22;;;3.92;100.00
59757;BME280;45631;51.962;5.974;2024-02-26T05:13:54;68824.03;;;3.97;100.00
59757;BME280;45631;51.962;5.974;2024-02-26T05:16:24;68822.53;;;3.93;100.00
59757;BME280;45631;51.962;5.974;2024-02-26T05:18:54;68822.47;;;3.88;100.00
59757;BME280;45631;51.962;5.974;2024-02-26T05:21:25;68823.97;;;3.92;100.00
59757;BME280;45631;51.962;5.974;2024-02-26T05:23:53;68830.63;;;3.96;100.00
59757;BME280;45631;51.962;5.974;2024-02-26T05:26:24;68819.97;;;3.93;100.00
59757;BME280;45631;51.962;5.974;2024-02-26T05:28:52;68824.59;;;3.97;100.00
59757;BME280;45631;51.962;5.974;2024-02-26T05:31:30;68820.22;;;3.91;100.00
59757;BME280;45631;51.962;5.974;2024-02-26T05:33:58;68816.50;;;3.90;100.00
59757;BME280;45631;51.962;5.974;2024-02-26T05:36:26;68815.31;;;3.89;100.00
59757;BME280;45631;51.962;5.974;2024-02-26T05:39:00;68815.91;;;3.89;100.00
59757;BME280;45631;51.962;5.974;2024-02-26T05:41:28;68815.31;;;3.89;100.00
59757;BME280;45631;51.962;5.974;2024-02-26T05:43:56;68817.63;;;3.91;100.00
59757;BME280;45631;51.962;5.974;2024-02-26T05:46:24;68812.75;;;3.89;100.00
59757;BME280;45631;51.962;5.974;2024-02-26T05:48:55;68814.16;;;3.88;100.00
59757;BME280;45631;51.962;5.974;2024-02-26T05:51:23;68815.91;;;3.89;100.00
59757;BME280;45631;51.962;5.974;2024-02-26T05:53:52;68814.16;;;3.88;100.00
59757;BME280;45631;51.962;5.974;2024-02-26T05:56:22;68829.19;;;3.97;100.00
59757;BME280;45631;51.962;5.974;2024-02-26T05:58:50;68822.53;;;3.93;100.00
59757;BME280;45631;51.962;5.974;2024-02-26T06:01:20;68819.38;;;3.93;100.00
59757;BME280;45631;51.962;5.974;2024-02-26T06:03:48;68827.44;;;3.95;100.00
59757;BME280;45631;51.962;5.974;2024-02-26T06:06:18;68823.13;;;3.94;100.00
59757;BME280;45631;51.962;5.974;2024-02-26T06:08:48;68822.88;;;3.96;100.00
59757;BME280;45631;51.962;5.974;2024-02-26T06:11:17;68833.84;;;4.01;100.00
59757;BME280;45631;51.962;5.974;2024-02-26T06:13:45;68821.69;;;3.95;100.00
59757;BME280;45631;51.962;5.974;2024-02-26T06:16:14;68824.03;;;3.97;100.00
59757;BME280;45631;51.962;5.974;2024-02-26T06:18:42;68820.53;;;3.94;100.00
59757;BME280;45631;51.962;5.974;2024-02-26T06:21:11;68825.69;;;3.94;100.00
59757;BME280;45631;51.962;5.974;2024-02-26T06:23:40;68819.97;;;3.93;100.00
59757;BME280;45631;51.962;5.974;2024-02-26T06:26:08;68817.63;;;3.91;100.00
59757;BME280;45631;51.962;5.974;2024-02-26T06:28:37;68824.59;;;3.97;100.00
59757;BME280;45631;51.962;5.974;2024-02-26T06:31:07;68828.03;;;3.96;100.00
59757;BME280;45631;51.962;5.974;2024-02-26T06:33:38;68819.66;;;3.91;100.00
59757;BME280;45631;51.962;5.974;2024-02-26T06:36:06;68819.91;;;3.88;100.00
59757;BME280;45631;51.962;5.974;2024-02-26T06:38:35;68814.72;;;3.88;100.00
59757;BME280;45631;51.962;5.974;2024-02-26T06:41:04;68817.91;;;3.89;100.00
59757;BME280;45631;51.962;5.974;2024-02-26T06:43:32;68815.00;;;3.86;100.00
59757;BME280;45631;51.962;5.974;2024-02-26T06:46:00;68821.06;;;3.89;100.00
59757;BME280;45631;51.962;5.974;2024-02-26T06:48:29;68811.84;;;3.86;100.00
59757;BME280;45631;51.962;5.974;2024-02-26T06:50:57;68810.69;;;3.85;100.00
59757;BME280;45631;51.962;5.974;2024-02-26T06:53:25;68814.44;;;3.86;100.00
59757;BME280;45631;51.962;5.974;2024-02-26T06:55:53;68814.09;;;3.83;100.00
59757;BME280;45631;51.962;5.974;2024-02-26T06:58:23;68809.78;;;3.82;100.00
59757;BME280;45631;51.962;5.974;2024-02-26T07:00:51;68806.94;;;3.84;100.00
59757;BME280;45631;51.962;5.974;2024-02-26T07:03:19;68808.94;;;3.83;100.00
59757;BME280;45631;51.962;5.974;2024-02-26T07:05:49;68810.09;;;3.84;100.00
59757;BME280;45631;51.962;5.974;2024-02-26T07:08:18;68810.34;;;3.82;100.00
59757;BME280;45631;51.962;5.974;2024-02-26T07:10:46;68805.44;;;3.80;100.00
59757;BME280;45631;51.962;5.974;2024-02-26T07:13:14;68811.53;;;3.83;100.00
59757;BME280;45631;51.962;5.974;2024-02-26T07:15:44;68809.19;;;3.81;100.00
59757;BME280;45631;51.962;5.974;2024-02-26T07:18:12;68808.63;;;3.81;100.00
59757;BME280;45631;51.962;5.974;2024-02-26T07:20:41;68810.03;;;3.80;100.00
59757;BME280;45631;51.962;5.974;2024-02-26T07:23:09;68804.31;;;3.79;100.00
59757;BME280;45631;51.962;5.974;2024-02-26T07:25:37;68806.63;;;3.81;100.00
59757;BME280;45631;51.962;5.974;2024-02-26T07:28:05;68808.94;;;3.83;100.00
59757;BME280;45631;51.962;5.974;2024-02-26T07:30:33;68807.78;;;3.82;100.00
59757;BME280;45631;51.962;5.974;2024-02-26T07:33:03;68806.63;;;3.81;100.00
59757;BME280;45631;51.962;5.974;2024-02-26T07:35:32;68808.94;;;3.83;100.00
59757;BME280;45631;51.962;5.974;2024-02-26T07:38:00;68813.25;;;3.85;100.00
59757;BME280;45631;51.962;5.974;2024-02-26T07:40:28;68811.25;;;3.85;100.00
59757;BME280;45631;51.962;5.974;2024-02-26T07:42:56;68813.50;;;3.83;100.00
59757;BME280;45631;51.962;5.974;2024-02-26T07:45:24;68807.78;;;3.82;100.00
59757;BME280;45631;51.962;5.974;2024-02-26T07:47:52;68808.63;;;3.81;100.00
59757;BME280;45631;51.962;5.974;2024-02-26T07:50:22;68815.84;;;3.85;100.00
59757;BME280;45631;51.962;5.974;2024-02-26T07:52:50;68807.78;;;3.82;100.00
59757;BME280;45631;51.962;5.974;2024-02-26T07:55:19;68812.66;;;3.84;100.00
59757;BME280;45631;51.962;5.974;2024-02-26T07:57:48;68815.00;;;3.86;100.00
59757;BME280;45631;51.962;5.974;2024-02-26T08:00:16;68817.59;;;3.86;100.00
59757;BME280;45631;51.962;5.974;2024-02-26T08:02:45;68813.84;;;3.85;100.00
59757;BME280;45631;51.962;5.974;2024-02-26T08:05:17;68814.44;;;3.86;100.00
59757;BME280;45631;51.962;5.974;2024-02-26T08:07:46;68813.84;;;3.85;100.00
59757;BME280;45631;51.962;5.974;2024-02-26T08:10:15;68807.50;;;3.84;100.00
59757;BME280;45631;51.962;5.974;2024-02-26T08:12:44;68811.25;;;3.85;100.00
59757;BME280;45631;51.962;5.974;2024-02-26T08:15:13;68822.22;;;3.91;100.00
59757;BME280;45631;51.962;5.974;2024-02-26T08:17:41;68814.72;;;3.88;100.00
59757;BME280;45631;51.962;5.974;2024-02-26T08:20:10;68817.63;;;3.91;100.00
59757;BME280;45631;51.962;5.974;2024-02-26T08:22:38;68818.47;;;3.89;100.00
59757;BME280;45631;51.962;5.974;2024-02-26T08:25:09;68817.00;;;3.86;100.00
59757;BME280;45631;51.962;5.974;2024-02-26T08:27:38;68813.59;;;3.87;100.00
59757;BME280;45631;51.962;5.974;2024-02-26T08:30:07;68817.31;;;3.88;100.00
59757;BME280;45631;51.962;5.974;2024-02-26T08:32:35;68808.94;;;3.83;100.00
59757;BME280;45631;51.962;5.974;2024-02-26T08:35:04;68815.31;;;3.89;100.00
59757;BME280;45631;51.962;5.974;2024-02-26T08:37:32;68810.69;;;3.85;100.00
59757;BME280;45631;51.962;5.974;2024-02-26T08:40:00;68816.50;;;3.90;100.00
59757;BME280;45631;51.962;5.974;2024-02-26T08:42:34;68818.81;;;3.92;100.00
59757;BME280;45631;51.962;5.974;2024-02-26T08:45:06;68820.53;;;3.94;100.00
59757;BME280;45631;51.962;5.974;2024-02-26T08:47:35;68813.00;;;3.87;100.00
59757;BME280;45631;51.962;5.974;2024-02-26T08:50:04;68813.00;;;3.87;100.00
59757;BME280;45631;51.962;5.974;2024-02-26T08:52:33;68811.00;;;3.87;100.00
59757;BME280;45631;51.962;5.974;2024-02-26T08:55:04;68821.66;;;3.90;100.00
59757;BME280;45631;51.962;5.974;2024-02-26T08:57:34;68815.91;;;3.89;100.00
59757;BME280;45631;51.962;5.974;2024-02-26T09:00:03;68817.31;;;3.88;100.00
59757;BME280;45631;51.962;5.974;2024-02-26T09:02:32;68820.22;;;3.91;100.00
59757;BME280;45631;51.962;5.974;2024-02-26T09:05:00;68820.22;;;3.91;100.00
59757;BME280;45631;51.962;5.974;2024-02-26T09:07:28;68815.06;;;3.91;100.00
59757;BME280;45631;51.962;5.974;2024-02-26T09:09:57;68821.94;;;3.93;100.00
59757;BME280;45631;51.962;5.974;2024-02-26T09:12:25;68829.25;;;4.01;100.00
59757;BME280;45631;51.962;5.974;2024-02-26T09:14:54;68825.78;;;3.98;100.00
59757;BME280;45631;51.962;5.974;2024-02-26T09:17:24;68826.91;;;3.99;100.00
59757;BME280;45631;51.962;5.974;2024-02-26T09:19:52;68823.75;;;3.99;100.00
59757;BME280;45631;51.962;5.974;2024-02-26T09:22:21;68832.09;;;3.99;100.00
59757;BME280;45631;51.962;5.974;2024-02-26T09:24:49;68828.94;;;3.99;100.00
59757;BME280;45631;51.962;5.974;2024-02-26T09:27:19;68831.50;;;3.99;100.00
59757;BME280;45631;51.962;5.974;2024-02-26T09:29:47;68830.09;;;4.00;100.00
59757;BME280;45631;51.962;5.974;2024-02-26T09:32:16;68830.09;;;4.00;100.00
59757;BME280;45631;51.962;5.974;2024-02-26T09:34:45;68833.25;;;4.00;100.00
59757;BME280;45631;51.962;5.974;2024-02-26T09:37:13;68828.34;;;3.98;100.00
59757;BME280;45631;51.962;5.974;2024-02-26T09:39:48;68829.25;;;4.01;100.00
59757;BME280;45631;51.962;5.974;2024-02-26T09:42:19;68840.78;;;4.07;100.00
59757;BME280;45631;51.962;5.974;2024-02-26T09:44:51;68835.31;;;4.04;100.00
59757;BME280;45631;51.962;5.974;2024-02-26T09:47:23;68839.38;;;4.08;100.00
59757;BME280;45631;51.962;5.974;2024-02-26T09:49:53;68839.38;;;4.08;100.00
59757;BME280;45631;51.962;5.974;2024-02-26T09:52:25;68841.69;;;4.10;100.00
59757;BME280;45631;51.962;5.974;2024-02-26T09:54:54;68844.88;;;4.11;100.00
59757;BME280;45631;51.962;5.974;2024-02-26T09:57:22;68847.50;;;4.15;100.00
59757;BME280;45631;51.962;5.974;2024-02-26T09:59:53;68845.19;;;4.13;100.00
59757;BME280;45631;51.962;5.974;2024-02-26T10:02:23;68840.28;;;4.11;100.00
59757;BME280;45631;51.962;5.974;2024-02-26T10:04:52;68848.06;;;4.16;100.00
59757;BME280;45631;51.962;5.974;2024-02-26T10:07:23;68844.59;;;4.13;100.00
59757;BME280;45631;51.962;5.974;2024-02-26T10:09:51;68849.84;;;4.17;100.00
59757;BME280;45631;51.962;5.974;2024-02-26T10:12:20;68848.66;;;4.16;100.00
59757;BME280;45631;51.962;5.974;2024-02-26T10:14:49;68846.66;;;4.17;100.00
59757;BME280;45631;51.962;5.974;2024-02-26T10:17:19;68855.31;;;4.20;100.00
59757;BME280;45631;51.962;5.974;2024-02-26T10:19:49;68854.16;;;4.19;100.00
59757;BME280;45631;51.962;5.974;2024-02-26T10:22:19;68850.16;;;4.20;100.00
59757;BME280;45631;51.962;5.974;2024-02-26T10:24:49;68844.91;;;4.15;100.00
59757;BME280;45631;51.962;5.974;2024-02-26T10:27:19;68848.66;;;4.16;100.00
59757;BME280;45631;51.962;5.974;2024-02-26T10:29:51;68851.56;;;4.19;100.00
59757;BME280;45631;51.962;5.974;2024-02-26T10:32:20;68850.72;;;4.20;100.00
59757;BME280;45631;51.962;5.974;2024-02-26T10:34:55;68853.56;;;4.18;100.00
59757;BME280;45631;51.962;5.974;2024-02-26T10:37:23;68848.16;;;4.20;100.00
59757;BME280;45631;51.962;5.974;2024-02-26T10:39:56;68858.22;;;4.22;100.00
59757;BME280;45631;51.962;5.974;2024-02-26T10:42:26;68857.97;;;4.25;100.00
59757;BME280;45631;51.962;5.974;2024-02-26T10:44:54;68857.97;;;4.25;100.00
59757;BME280;45631;51.962;5.974;2024-02-26T10:47:24;68862.91;;;4.31;100.00
59757;BME280;45631;51.962;5.974;2024-02-26T10:49:53;68863.50;;;4.32;100.00
59757;BME280;45631;51.962;5.974;2024-02-26T10:52:23;68869.81;;;4.33;100.00
59757;BME280;45631;51.962;5.974;2024-02-26T10:54:54;68862.31;;;4.31;100.00
59757;BME280;45631;51.962;5.974;2024-02-26T10:57:27;68864.09;;;4.32;100.00
59757;BME280;45631;51.962;5.974;2024-02-26T11:00:00;68867.25;;;4.33;100.00
59757;BME280;45631;51.962;5.974;2024-02-26T11:02:32;68864.91;;;4.31;100.00
59757;BME280;45631;51.962;5.974;2024-02-26T11:05:03;68861.75;;;4.30;100.00
59757;BME280;45631;51.962;5.974;2024-02-26T11:07:32;68861.75;;;4.30;100.00
59757;BME280;45631;51.962;5.974;2024-02-26T11:10:00;68865.50;;;4.31;100.00
59757;BME280;45631;51.962;5.974;2024-02-26T11:12:32;68865.50;;;4.31;100.00
59757;BME280;45631;51.962;5.974;2024-02-26T11:15:03;68859.19;;;4.30;100.00
59757;BME280;45631;51.962;5.974;2024-02-26T11:17:32;68858.28;;;4.27;100.00
59757;BME280;45631;51.962;5.974;2024-02-26T11:20:03;68860.91;;;4.32;100.00
59757;BME280;45631;51.962;5.974;2024-02-26T11:22:32;68860.88;;;4.27;100.00
59757;BME280;45631;51.962;5.974;2024-02-26T11:25:00;68855.69;;;4.27;100.00
59757;BME280;45631;51.962;5.974;2024-02-26T11:27:30;68864.00;;;4.28;100.00
59757;BME280;45631;51.962;5.974;2024-02-26T11:30:02;68863.44;;;4.27;100.00
59757;BME280;45631;51.962;5.974;2024-02-26T11:32:32;68857.69;;;4.27;100.00
59757;BME280;45631;51.962;5.974;2024-02-26T11:35:04;68862.31;;;4.31;100.00
59757;BME280;45631;51.962;5.974;2024-02-26T11:37:34;68867.25;;;4.33;100.00
59757;BME280;45631;51.962;5.974;2024-02-26T11:40:11;68867.81;;;4.33;100.00
59757;BME280;45631;51.962;5.974;2024-02-26T11:42:43;68863.81;;;4.34;100.00
59757;BME280;45631;51.962;5.974;2024-02-26T11:48:21;68864.38;;;4.35;100.00
59757;BME280;45631;51.962;5.974;2024-02-26T11:50:52;68865.81;;;4.34;100.00
59757;BME280;45631;51.962;5.974;2024-02-26T11:53:22;68870.72;;;4.36;100.00
59757;BME280;45631;51.962;5.974;2024-02-26T11:56:19;68872.72;;;4.35;100.00
59757;BME280;45631;51.962;5.974;2024-02-26T11:58:51;68876.22;;;4.38;100.00
59757;BME280;45631;51.962;5.974;2024-02-26T12:01:43;68874.78;;;4.39;100.00
59757;BME280;45631;51.962;5.974;2024-02-26T12:04:14;68867.88;;;4.38;100.00
59757;BME280;45631;51.962;5.974;2024-02-26T12:07:03;68881.44;;;4.43;100.00
59757;BME280;45631;51.962;5.974;2024-02-26T12:09:33;68880.00;;;4.44;100.00
59757;BME280;45631;51.962;5.974;2024-02-26T12:12:04;68878.03;;;4.45;100.00
59757;BME280;45631;51.962;5.974;2024-02-26T12:14:34;68875.69;;;4.43;100.00
59757;BME280;45631;51.962;5.974;2024-02-26T12:17:03;68883.19;;;4.45;100.00
59757;BME280;45631;51.962;5.974;2024-02-26T12:19:35;68881.19;;;4.45;100.00
59757;BME280;45631;51.962;5.974;2024-02-26T12:22:13;68881.50;;;4.48;100.00
59757;BME280;45631;51.962;5.974;2024-02-26T12:24:41;68880.94;;;4.47;100.00
59757;BME280;45631;51.962;5.974;2024-02-26T12:27:09;68882.06;;;4.48;100.00
59757;BME280;45631;51.962;5.974;2024-02-26T12:29:37;68884.41;;;4.50;100.00
59757;BME280;45631;51.962;5.974;2024-02-26T12:32:06;68887.31;;;4.53;100.00
59757;BME280;45631;51.962;5.974;2024-02-26T12:34:34;68889.63;;;4.55;100.00
59757;BME280;45631;51.962;5.974;2024-02-26T12:37:03;68901.19;;;4.61;100.00
59757;BME280;45631;51.962;5.974;2024-02-26T12:39:33;68900.34;;;4.62;100.00
59757;BME280;45631;51.962;5.974;2024-02-26T12:42:01;68899.75;;;4.62;100.00
59757;BME280;45631;51.962;5.974;2024-02-26T12:44:31;68908.16;;;4.67;100.00
59757;BME280;45631;51.962;5.974;2024-02-26T12:47:03;68906.41;;;4.65;100.00
59757;BME280;45631;51.962;5.974;2024-02-26T12:49:31;68909.91;;;4.68;100.00
59757;BME280;45631;51.962;5.974;2024-02-26T12:52:00;68905.91;;;4.69;100.00
59757;BME280;45631;51.962;5.974;2024-02-26T12:54:30;68911.38;;;4.72;100.00
59757;BME280;45631;51.962;5.974;2024-02-26T12:57:03;68912.53;;;4.73;100.00
59757;BME280;45631;51.962;5.974;2024-02-26T12:59:36;68916.03;;;4.76;100.00
59757;BME280;45631;51.962;5.974;2024-02-26T13:02:05;68912.28;;;4.75;100.00
59757;BME280;45631;51.962;5.974;2024-02-26T13:04:34;68911.09;;;4.74;100.00
59757;BME280;45631;51.962;5.974;2024-02-26T13:07:03;68913.97;;;4.72;100.00
59757;BME280;45631;51.962;5.974;2024-02-26T13:09:33;68915.44;;;4.76;100.00
59757;BME280;45631;51.962;5.974;2024-02-26T13:12:05;68916.94;;;4.79;100.00
59757;BME280;45631;51.962;5.974;2024-02-26T13:14:34;68922.16;;;4.84;100.00